sensor_id;sensor_type;location;lat;lon;timestamp;P1;durP1;ratioP1;P2;durP2;ratioP2
16928;SDS011;8581;47.334;11.190;2023-08-12T00:01:12;3.53;;;3.23;;
16928;SDS011;8581;47.334;11.190;2023-08-12T00:03:44;3.93;;;3.43;;
16928;SDS011;8581;47.334;11.190;2023-08-12T00:06:16;3.40;;;3.17;;
16928;SDS011;8581;47.334;11.190;2023-08-12T00:08:47;3.73;;;3.30;;
16928;SDS011;8581;47.334;11.190;2023-08-12T00:11:19;3.40;;;3.13;;
16928;SDS011;8581;47.334;11.190;2023-08-12T00:13:50;4.13;;;3.07;;
16928;SDS011;8581;47.334;11.190;2023-08-12T00:16:22;3.90;;;3.50;;
16928;SDS011;8581;47.334;11.190;2023-08-12T00:18:54;5.23;;;3.20;;
16928;SDS011;8581;47.334;11.190;2023-08-12T00:21:25;3.57;;;3.27;;
16928;SDS011;8581;47.334;11.190;2023-08-12T00:23:57;3.90;;;3.60;;
16928;SDS011;8581;47.334;11.190;2023-08-12T00:26:28;4.93;;;3.27;;
16928;SDS011;8581;47.334;11.190;2023-08-12T00:29:00;3.60;;;3.30;;
16928;SDS011;8581;47.334;11.190;2023-08-12T00:31:32;5.53;;;3.53;;
16928;SDS011;8581;47.334;11.190;2023-08-12T00:34:03;3.47;;;3.27;;
16928;SDS011;8581;47.334;11.190;2023-08-12T00:36:35;3.40;;;3.10;;
16928;SDS011;8581;47.334;11.190;2023-08-12T00:39:06;3.70;;;3.40;;
16928;SDS011;8581;47.334;11.190;2023-08-12T00:41:38;4.87;;;3.47;;
16928;SDS011;8581;47.334;11.190;2023-08-12T00:44:10;5.20;;;3.40;;
16928;SDS011;8581;47.334;11.190;2023-08-12T00:46:41;6.23;;;4.73;;
16928;SDS011;8581;47.334;11.190;2023-08-12T00:49:13;4.07;;;3.43;;
16928;SDS011;8581;47.334;11.190;2023-08-12T00:51:44;4.40;;;4.00;;
16928;SDS011;8581;47.334;11.190;2023-08-12T00:54:16;3.93;;;3.63;;
16928;SDS011;8581;47.334;11.190;2023-08-12T00:56:48;3.47;;;3.20;;
16928;SDS011;8581;47.334;11.190;2023-08-12T00:59:19;3.60;;;3.30;;
16928;SDS011;8581;47.334;11.190;2023-08-12T01:01:51;3.80;;;3.50;;
16928;SDS011;8581;47.334;11.190;2023-08-12T01:04:22;3.47;;;3.17;;
16928;SDS011;8581;47.334;11.190;2023-08-12T01:06:54;4.63;;;3.47;;
16928;SDS011;8581;47.334;11.190;2023-08-12T01:09:26;3.60;;;3.30;;
16928;SDS011;8581;47.334;11.190;2023-08-12T01:12:01;3.80;;;3.50;;
16928;SDS011;8581;47.334;11.190;2023-08-12T01:14:35;3.70;;;3.40;;
16928;SDS011;8581;47.334;11.190;2023-08-12T01:17:11;3.83;;;3.47;;
16928;SDS011;8581;47.334;11.190;2023-08-12T01:19:42;4.73;;;3.50;;
16928;SDS011;8581;47.334;11.190;2023-08-12T01:22:13;3.97;;;3.60;;
16928;SDS011;8581;47.334;11.190;2023-08-12T01:24:45;4.00;;;3.60;;
16928;SDS011;8581;47.334;11.190;2023-08-12T01:27:17;3.97;;;3.67;;
16928;SDS011;8581;47.334;11.190;2023-08-12T01:29:49;5.10;;;3.90;;
16928;SDS011;8581;47.334;11.190;2023-08-12T01:32:23;4.07;;;3.60;;
16928;SDS011;8581;47.334;11.190;2023-08-12T01:34:57;4.20;;;3.90;;
16928;SDS011;8581;47.334;11.190;2023-08-12T01:37:27;4.20;;;3.90;;
16928;SDS011;8581;47.334;11.190;2023-08-12T01:39:57;4.13;;;3.83;;
16928;SDS011;8581;47.334;11.190;2023-08-12T01:42:28;4.30;;;3.90;;
16928;SDS011;8581;47.334;11.190;2023-08-12T01:45:00;3.70;;;3.50;;
16928;SDS011;8581;47.334;11.190;2023-08-12T01:47:31;4.10;;;3.80;;
16928;SDS011;8581;47.334;11.190;2023-08-12T01:50:03;5.37;;;3.67;;
16928;SDS011;8581;47.334;11.190;2023-08-12T01:52:35;3.93;;;3.63;;
16928;SDS011;8581;47.334;11.190;2023-08-12T01:55:08;3.87;;;3.57;;
16928;SDS011;8581;47.334;11.190;2023-08-12T01:57:39;3.90;;;3.47;;
16928;SDS011;8581;47.334;11.190;2023-08-12T02:00:11;4.10;;;3.50;;
16928;SDS011;8581;47.334;11.190;2023-08-12T02:02:43;3.57;;;3.33;;
16928;SDS011;8581;47.334;11.190;2023-08-12T02:05:17;4.27;;;3.43;;
16928;SDS011;8581;47.334;11.190;2023-08-12T02:07:48;3.60;;;3.40;;
16928;SDS011;8581;47.334;11.190;2023-08-12T02:10:20;5.20;;;3.60;;
16928;SDS011;8581;47.334;11.190;2023-08-12T02:12:51;3.80;;;3.50;;
16928;SDS011;8581;47.334;11.190;2023-08-12T02:15:23;4.10;;;3.80;;
16928;SDS011;8581;47.334;11.190;2023-08-12T02:17:54;3.60;;;3.30;;
16928;SDS011;8581;47.334;11.190;2023-08-12T02:20:26;4.03;;;3.73;;
16928;SDS011;8581;47.334;11.190;2023-08-12T02:22:58;3.63;;;3.33;;
16928;SDS011;8581;47.334;11.190;2023-08-12T02:25:30;3.90;;;3.60;;
16928;SDS011;8581;47.334;11.190;2023-08-12T02:28:01;3.97;;;3.57;;
16928;SDS011;8581;47.334;11.190;2023-08-12T02:30:32;3.77;;;3.50;;
16928;SDS011;8581;47.334;11.190;2023-08-12T02:33:04;4.20;;;3.70;;
16928;SDS011;8581;47.334;11.190;2023-08-12T02:35:36;4.00;;;3.70;;
16928;SDS011;8581;47.334;11.190;2023-08-12T02:38:07;4.37;;;4.07;;
16928;SDS011;8581;47.334;11.190;2023-08-12T02:40:39;4.37;;;4.07;;
16928;SDS011;8581;47.334;11.190;2023-08-12T02:43:10;4.43;;;4.10;;
16928;SDS011;8581;47.334;11.190;2023-08-12T02:45:42;4.40;;;4.10;;
16928;SDS011;8581;47.334;11.190;2023-08-12T02:48:14;4.50;;;4.10;;
16928;SDS011;8581;47.334;11.190;2023-08-12T02:50:45;5.10;;;4.43;;
16928;SDS011;8581;47.334;11.190;2023-08-12T02:53:17;4.40;;;4.10;;
16928;SDS011;8581;47.334;11.190;2023-08-12T02:55:48;4.43;;;4.03;;
16928;SDS011;8581;47.334;11.190;2023-08-12T02:58:20;4.30;;;4.00;;
16928;SDS011;8581;47.334;11.190;2023-08-12T03:00:52;4.30;;;4.00;;
16928;SDS011;8581;47.334;11.190;2023-08-12T03:03:23;4.33;;;4.03;;
16928;SDS011;8581;47.334;11.190;2023-08-12T03:05:55;5.47;;;4.73;;
16928;SDS011;8581;47.334;11.190;2023-08-12T03:08:26;4.30;;;3.93;;
16928;SDS011;8581;47.334;11.190;2023-08-12T03:11:01;4.37;;;3.97;;
16928;SDS011;8581;47.334;11.190;2023-08-12T03:13:32;5.37;;;4.20;;
16928;SDS011;8581;47.334;11.190;2023-08-12T03:16:04;4.30;;;3.97;;
16928;SDS011;8581;47.334;11.190;2023-08-12T03:18:35;6.83;;;4.40;;
16928;SDS011;8581;47.334;11.190;2023-08-12T03:21:07;6.23;;;3.97;;
16928;SDS011;8581;47.334;11.190;2023-08-12T03:23:39;4.60;;;4.20;;
16928;SDS011;8581;47.334;11.190;2023-08-12T03:26:10;4.10;;;3.80;;
16928;SDS011;8581;47.334;11.190;2023-08-12T03:28:42;4.83;;;4.43;;
16928;SDS011;8581;47.334;11.190;2023-08-12T03:31:13;4.60;;;4.20;;
16928;SDS011;8581;47.334;11.190;2023-08-12T03:33:45;4.47;;;4.10;;
16928;SDS011;8581;47.334;11.190;2023-08-12T03:36:17;4.33;;;3.93;;
16928;SDS011;8581;47.334;11.190;2023-08-12T03:38:48;5.63;;;4.30;;
16928;SDS011;8581;47.334;11.190;2023-08-12T03:41:20;5.03;;;4.63;;
16928;SDS011;8581;47.334;11.190;2023-08-12T03:43:51;5.30;;;4.90;;
16928;SDS011;8581;47.334;11.190;2023-08-12T03:46:23;5.40;;;5.00;;
16928;SDS011;8581;47.334;11.190;2023-08-12T03:48:55;5.07;;;4.53;;
16928;SDS011;8581;47.334;11.190;2023-08-12T03:51:26;4.90;;;4.50;;
16928;SDS011;8581;47.334;11.190;2023-08-12T03:53:58;5.00;;;4.60;;
16928;SDS011;8581;47.334;11.190;2023-08-12T03:56:29;4.50;;;4.20;;
16928;SDS011;8581;47.334;11.190;2023-08-12T03:59:01;4.60;;;4.20;;
16928;SDS011;8581;47.334;11.190;2023-08-12T04:01:33;4.67;;;4.23;;
16928;SDS011;8581;47.334;11.190;2023-08-12T04:04:04;4.33;;;4.00;;
16928;SDS011;8581;47.334;11.190;2023-08-12T04:06:37;4.07;;;3.77;;
16928;SDS011;8581;47.334;11.190;2023-08-12T04:09:08;4.30;;;3.90;;
16928;SDS011;8581;47.334;11.190;2023-08-12T04:11:40;4.33;;;3.90;;
16928;SDS011;8581;47.334;11.190;2023-08-12T04:14:13;4.33;;;4.03;;
16928;SDS011;8581;47.334;11.190;2023-08-12T04:16:44;4.37;;;3.97;;
16928;SDS011;8581;47.334;11.190;2023-08-12T04:19:15;4.70;;;4.30;;
16928;SDS011;8581;47.334;11.190;2023-08-12T04:21:47;4.33;;;3.93;;
16928;SDS011;8581;47.334;11.190;2023-08-12T04:24:19;6.43;;;4.30;;
16928;SDS011;8581;47.334;11.190;2023-08-12T04:26:50;5.47;;;3.83;;
16928;SDS011;8581;47.334;11.190;2023-08-12T04:29:22;4.40;;;4.00;;
16928;SDS011;8581;47.334;11.190;2023-08-12T04:31:53;4.23;;;3.83;;
16928;SDS011;8581;47.334;11.190;2023-08-12T04:34:25;4.97;;;4.10;;
16928;SDS011;8581;47.334;11.190;2023-08-12T04:36:57;4.73;;;4.33;;
16928;SDS011;8581;47.334;11.190;2023-08-12T04:39:28;4.10;;;3.80;;
16928;SDS011;8581;47.334;11.190;2023-08-12T04:42:00;4.50;;;4.10;;
16928;SDS011;8581;47.334;11.190;2023-08-12T04:44:31;4.00;;;3.60;;
16928;SDS011;8581;47.334;11.190;2023-08-12T04:47:03;4.63;;;4.23;;
16928;SDS011;8581;47.334;11.190;2023-08-12T04:49:35;4.20;;;3.67;;
16928;SDS011;8581;47.334;11.190;2023-08-12T04:52:06;6.03;;;3.83;;
16928;SDS011;8581;47.334;11.190;2023-08-12T04:54:38;4.43;;;4.03;;
16928;SDS011;8581;47.334;11.190;2023-08-12T04:57:09;4.53;;;4.10;;
16928;SDS011;8581;47.334;11.190;2023-08-12T04:59:41;4.33;;;3.93;;
16928;SDS011;8581;47.334;11.190;2023-08-12T05:02:13;5.40;;;4.33;;
16928;SDS011;8581;47.334;11.190;2023-08-12T05:04:51;4.07;;;3.60;;
16928;SDS011;8581;47.334;11.190;2023-08-12T05:07:23;3.97;;;3.67;;
16928;SDS011;8581;47.334;11.190;2023-08-12T05:09:54;4.23;;;3.80;;
16928;SDS011;8581;47.334;11.190;2023-08-12T05:12:26;4.80;;;4.20;;
16928;SDS011;8581;47.334;11.190;2023-08-12T05:14:58;4.17;;;3.47;;
16928;SDS011;8581;47.334;11.190;2023-08-12T05:17:29;4.87;;;4.13;;
16928;SDS011;8581;47.334;11.190;2023-08-12T05:20:01;4.43;;;3.80;;
16928;SDS011;8581;47.334;11.190;2023-08-12T05:22:32;6.37;;;3.53;;
16928;SDS011;8581;47.334;11.190;2023-08-12T05:25:04;4.37;;;3.50;;
16928;SDS011;8581;47.334;11.190;2023-08-12T05:27:36;4.57;;;4.17;;
16928;SDS011;8581;47.334;11.190;2023-08-12T05:30:08;3.90;;;3.60;;
16928;SDS011;8581;47.334;11.190;2023-08-12T05:32:41;4.90;;;4.37;;
16928;SDS011;8581;47.334;11.190;2023-08-12T05:35:12;5.17;;;3.90;;
16928;SDS011;8581;47.334;11.190;2023-08-12T05:37:44;5.83;;;4.37;;
16928;SDS011;8581;47.334;11.190;2023-08-12T05:40:16;4.43;;;4.00;;
16928;SDS011;8581;47.334;11.190;2023-08-12T05:42:47;4.60;;;4.20;;
16928;SDS011;8581;47.334;11.190;2023-08-12T05:45:19;6.83;;;4.33;;
16928;SDS011;8581;47.334;11.190;2023-08-12T05:47:50;5.00;;;4.60;;
16928;SDS011;8581;47.334;11.190;2023-08-12T05:50:22;6.07;;;4.33;;
16928;SDS011;8581;47.334;11.190;2023-08-12T05:52:54;4.80;;;4.20;;
16928;SDS011;8581;47.334;11.190;2023-08-12T05:55:25;4.70;;;3.97;;
16928;SDS011;8581;47.334;11.190;2023-08-12T05:57:57;3.43;;;3.20;;
16928;SDS011;8581;47.334;11.190;2023-08-12T06:00:28;3.47;;;3.17;;
16928;SDS011;8581;47.334;11.190;2023-08-12T06:03:00;3.27;;;3.00;;
16928;SDS011;8581;47.334;11.190;2023-08-12T06:05:32;3.30;;;3.00;;
16928;SDS011;8581;47.334;11.190;2023-08-12T06:08:03;3.50;;;3.20;;
16928;SDS011;8581;47.334;11.190;2023-08-12T06:10:35;2.90;;;2.70;;
16928;SDS011;8581;47.334;11.190;2023-08-12T06:13:07;3.00;;;2.80;;
16928;SDS011;8581;47.334;11.190;2023-08-12T06:15:38;3.57;;;3.27;;
16928;SDS011;8581;47.334;11.190;2023-08-12T06:18:10;3.20;;;2.63;;
16928;SDS011;8581;47.334;11.190;2023-08-12T06:20:41;2.93;;;2.60;;
16928;SDS011;8581;47.334;11.190;2023-08-12T06:23:13;4.63;;;2.83;;
16928;SDS011;8581;47.334;11.190;2023-08-12T06:25:45;2.83;;;2.37;;
16928;SDS011;8581;47.334;11.190;2023-08-12T06:28:16;2.93;;;1.90;;
16928;SDS011;8581;47.334;11.190;2023-08-12T06:30:48;2.77;;;2.40;;
16928;SDS011;8581;47.334;11.190;2023-08-12T06:33:19;2.10;;;1.70;;
16928;SDS011;8581;47.334;11.190;2023-08-12T06:35:51;3.58;;;2.20;;
16928;SDS011;8581;47.334;11.190;2023-08-12T06:38:23;2.25;;;2.08;;
16928;SDS011;8581;47.334;11.190;2023-08-12T06:40:54;2.30;;;1.82;;
16928;SDS011;8581;47.334;11.190;2023-08-12T06:43:26;1.70;;;1.60;;
16928;SDS011;8581;47.334;11.190;2023-08-12T06:45:57;1.75;;;1.65;;
16928;SDS011;8581;47.334;11.190;2023-08-12T06:48:29;2.30;;;2.08;;
16928;SDS011;8581;47.334;11.190;2023-08-12T06:51:01;2.30;;;1.65;;
16928;SDS011;8581;47.334;11.190;2023-08-12T06:53:32;1.95;;;1.85;;
16928;SDS011;8581;47.334;11.190;2023-08-12T06:56:04;1.85;;;1.60;;
16928;SDS011;8581;47.334;11.190;2023-08-12T06:58:35;3.35;;;1.70;;
16928;SDS011;8581;47.334;11.190;2023-08-12T07:01:07;1.70;;;1.60;;
16928;SDS011;8581;47.334;11.190;2023-08-12T07:03:39;2.00;;;1.50;;
16928;SDS011;8581;47.334;11.190;2023-08-12T07:06:10;1.80;;;1.70;;
16928;SDS011;8581;47.334;11.190;2023-08-12T07:08:42;1.90;;;1.80;;
16928;SDS011;8581;47.334;11.190;2023-08-12T07:11:13;2.45;;;1.60;;
16928;SDS011;8581;47.334;11.190;2023-08-12T07:13:45;5.22;;;2.00;;
16928;SDS011;8581;47.334;11.190;2023-08-12T07:16:17;1.47;;;1.37;;
16928;SDS011;8581;47.334;11.190;2023-08-12T07:18:48;1.87;;;1.72;;
16928;SDS011;8581;47.334;11.190;2023-08-12T07:21:20;1.87;;;1.77;;
16928;SDS011;8581;47.334;11.190;2023-08-12T07:23:51;2.00;;;1.80;;
16928;SDS011;8581;47.334;11.190;2023-08-12T07:26:23;3.42;;;2.15;;
16928;SDS011;8581;47.334;11.190;2023-08-12T07:28:55;1.60;;;1.50;;
16928;SDS011;8581;47.334;11.190;2023-08-12T07:31:26;1.52;;;1.42;;
16928;SDS011;8581;47.334;11.190;2023-08-12T07:33:58;1.80;;;1.70;;
16928;SDS011;8581;47.334;11.190;2023-08-12T07:36:30;1.92;;;1.60;;
16928;SDS011;8581;47.334;11.190;2023-08-12T07:39:01;2.25;;;2.05;;
16928;SDS011;8581;47.334;11.190;2023-08-12T07:41:33;3.25;;;1.87;;
16928;SDS011;8581;47.334;11.190;2023-08-12T07:44:04;1.75;;;1.65;;
16928;SDS011;8581;47.334;11.190;2023-08-12T07:46:36;2.25;;;1.95;;
16928;SDS011;8581;47.334;11.190;2023-08-12T07:49:10;1.90;;;1.80;;
16928;SDS011;8581;47.334;11.190;2023-08-12T07:51:42;2.05;;;1.82;;
16928;SDS011;8581;47.334;11.190;2023-08-12T07:54:13;1.95;;;1.67;;
16928;SDS011;8581;47.334;11.190;2023-08-12T07:56:45;1.82;;;1.72;;
16928;SDS011;8581;47.334;11.190;2023-08-12T07:59:17;1.60;;;1.50;;
16928;SDS011;8581;47.334;11.190;2023-08-12T08:01:48;1.60;;;1.50;;
16928;SDS011;8581;47.334;11.190;2023-08-12T08:04:20;3.02;;;1.60;;
16928;SDS011;8581;47.334;11.190;2023-08-12T08:06:51;1.65;;;1.55;;
16928;SDS011;8581;47.334;11.190;2023-08-12T08:09:23;1.60;;;1.50;;
16928;SDS011;8581;47.334;11.190;2023-08-12T08:11:55;2.30;;;2.05;;
16928;SDS011;8581;47.334;11.190;2023-08-12T08:14:26;1.60;;;1.50;;
16928;SDS011;8581;47.334;11.190;2023-08-12T08:16:58;2.00;;;1.70;;
16928;SDS011;8581;47.334;11.190;2023-08-12T08:19:29;1.90;;;1.80;;
16928;SDS011;8581;47.334;11.190;2023-08-12T08:22:01;1.40;;;1.30;;
16928;SDS011;8581;47.334;11.190;2023-08-12T08:24:33;1.75;;;1.60;;
16928;SDS011;8581;47.334;11.190;2023-08-12T08:29:42;2.30;;;1.60;;
16928;SDS011;8581;47.334;11.190;2023-08-12T08:32:13;4.15;;;1.42;;
16928;SDS011;8581;47.334;11.190;2023-08-12T08:34:45;3.45;;;1.72;;
16928;SDS011;8581;47.334;11.190;2023-08-12T08:37:16;1.57;;;1.47;;
16928;SDS011;8581;47.334;11.190;2023-08-12T08:39:48;1.60;;;1.50;;
16928;SDS011;8581;47.334;11.190;2023-08-12T08:42:23;1.70;;;1.60;;
16928;SDS011;8581;47.334;11.190;2023-08-12T08:44:54;1.90;;;1.70;;
16928;SDS011;8581;47.334;11.190;2023-08-12T08:47:26;1.47;;;1.37;;
16928;SDS011;8581;47.334;11.190;2023-08-12T08:49:57;2.45;;;1.52;;
16928;SDS011;8581;47.334;11.190;2023-08-12T08:52:29;1.62;;;1.52;;
16928;SDS011;8581;47.334;11.190;2023-08-12T08:55:00;1.90;;;1.67;;
16928;SDS011;8581;47.334;11.190;2023-08-12T08:57:32;1.70;;;1.60;;
16928;SDS011;8581;47.334;11.190;2023-08-12T09:00:04;4.05;;;1.50;;
16928;SDS011;8581;47.334;11.190;2023-08-12T09:02:38;1.57;;;1.47;;
16928;SDS011;8581;47.334;11.190;2023-08-12T09:05:10;1.85;;;1.40;;
16928;SDS011;8581;47.334;11.190;2023-08-12T09:07:42;1.57;;;1.47;;
16928;SDS011;8581;47.334;11.190;2023-08-12T09:10:13;1.72;;;1.62;;
16928;SDS011;8581;47.334;11.190;2023-08-12T09:12:44;1.35;;;1.30;;
16928;SDS011;8581;47.334;11.190;2023-08-12T09:15:16;2.10;;;1.62;;
16928;SDS011;8581;47.334;11.190;2023-08-12T09:17:48;1.65;;;1.55;;
16928;SDS011;8581;47.334;11.190;2023-08-12T09:20:19;2.02;;;1.80;;
16928;SDS011;8581;47.334;11.190;2023-08-12T09:22:58;2.00;;;1.57;;
16928;SDS011;8581;47.334;11.190;2023-08-12T09:25:30;2.05;;;1.70;;
16928;SDS011;8581;47.334;11.190;2023-08-12T09:28:02;1.70;;;1.60;;
16928;SDS011;8581;47.334;11.190;2023-08-12T09:30:34;1.70;;;1.60;;
16928;SDS011;8581;47.334;11.190;2023-08-12T09:33:07;1.60;;;1.50;;
16928;SDS011;8581;47.334;11.190;2023-08-12T09:35:39;1.65;;;1.55;;
16928;SDS011;8581;47.334;11.190;2023-08-12T09:38:11;1.80;;;1.70;;
16928;SDS011;8581;47.334;11.190;2023-08-12T09:40:42;2.17;;;1.60;;
16928;SDS011;8581;47.334;11.190;2023-08-12T09:43:13;1.40;;;1.30;;
16928;SDS011;8581;47.334;11.190;2023-08-12T09:45:46;1.60;;;1.42;;
16928;SDS011;8581;47.334;11.190;2023-08-12T09:48:18;1.30;;;1.20;;
16928;SDS011;8581;47.334;11.190;2023-08-12T09:50:49;1.40;;;1.30;;
16928;SDS011;8581;47.334;11.190;2023-08-12T09:53:22;2.85;;;1.60;;
16928;SDS011;8581;47.334;11.190;2023-08-12T09:55:53;1.40;;;1.30;;
16928;SDS011;8581;47.334;11.190;2023-08-12T09:58:25;1.75;;;1.65;;
16928;SDS011;8581;47.334;11.190;2023-08-12T10:00:56;1.98;;;1.55;;
16928;SDS011;8581;47.334;11.190;2023-08-12T10:03:28;1.85;;;1.52;;
16928;SDS011;8581;47.334;11.190;2023-08-12T10:06:00;2.85;;;1.50;;
16928;SDS011;8581;47.334;11.190;2023-08-12T10:08:31;1.60;;;1.50;;
16928;SDS011;8581;47.334;11.190;2023-08-12T10:11:03;1.85;;;1.52;;
16928;SDS011;8581;47.334;11.190;2023-08-12T10:13:35;1.80;;;1.57;;
16928;SDS011;8581;47.334;11.190;2023-08-12T10:16:06;2.33;;;1.30;;
16928;SDS011;8581;47.334;11.190;2023-08-12T10:18:38;1.60;;;1.50;;
16928;SDS011;8581;47.334;11.190;2023-08-12T10:21:10;1.57;;;1.47;;
16928;SDS011;8581;47.334;11.190;2023-08-12T10:23:42;2.08;;;1.35;;
16928;SDS011;8581;47.334;11.190;2023-08-12T10:26:13;1.65;;;1.52;;
16928;SDS011;8581;47.334;11.190;2023-08-12T10:28:45;1.98;;;1.60;;
16928;SDS011;8581;47.334;11.190;2023-08-12T10:31:17;1.60;;;1.50;;
16928;SDS011;8581;47.334;11.190;2023-08-12T10:33:48;2.00;;;1.40;;
16928;SDS011;8581;47.334;11.190;2023-08-12T10:36:20;1.65;;;1.40;;
16928;SDS011;8581;47.334;11.190;2023-08-12T10:38:52;1.80;;;1.70;;
16928;SDS011;8581;47.334;11.190;2023-08-12T10:41:24;1.42;;;1.30;;
16928;SDS011;8581;47.334;11.190;2023-08-12T10:43:56;1.70;;;1.60;;
16928;SDS011;8581;47.334;11.190;2023-08-12T10:46:29;1.50;;;1.40;;
16928;SDS011;8581;47.334;11.190;2023-08-12T10:49:02;1.40;;;1.30;;
16928;SDS011;8581;47.334;11.190;2023-08-12T10:54:26;1.70;;;1.60;;
16928;SDS011;8581;47.334;11.190;2023-08-12T10:57:05;1.70;;;1.60;;
16928;SDS011;8581;47.334;11.190;2023-08-12T11:02:26;2.77;;;1.50;;
16928;SDS011;8581;47.334;11.190;2023-08-12T11:04:59;3.98;;;1.42;;
16928;SDS011;8581;47.334;11.190;2023-08-12T11:07:45;1.77;;;1.67;;
16928;SDS011;8581;47.334;11.190;2023-08-12T11:10:16;1.80;;;1.45;;
16928;SDS011;8581;47.334;11.190;2023-08-12T11:12:52;1.62;;;1.40;;
16928;SDS011;8581;47.334;11.190;2023-08-12T11:15:29;1.92;;;1.52;;
16928;SDS011;8581;47.334;11.190;2023-08-12T11:18:03;1.85;;;1.50;;
16928;SDS011;8581;47.334;11.190;2023-08-12T11:20:36;3.98;;;1.45;;
16928;SDS011;8581;47.334;11.190;2023-08-12T11:23:07;1.75;;;1.47;;
16928;SDS011;8581;47.334;11.190;2023-08-12T11:25:39;3.60;;;1.65;;
16928;SDS011;8581;47.334;11.190;2023-08-12T11:28:10;2.77;;;1.50;;
16928;SDS011;8581;47.334;11.190;2023-08-12T11:30:42;2.77;;;1.72;;
16928;SDS011;8581;47.334;11.190;2023-08-12T11:33:15;5.40;;;1.92;;
16928;SDS011;8581;47.334;11.190;2023-08-12T11:35:45;2.47;;;1.47;;
16928;SDS011;8581;47.334;11.190;2023-08-12T11:38:17;2.10;;;1.50;;
16928;SDS011;8581;47.334;11.190;2023-08-12T11:40:48;2.60;;;1.72;;
16928;SDS011;8581;47.334;11.190;2023-08-12T11:43:21;2.75;;;1.75;;
16928;SDS011;8581;47.334;11.190;2023-08-12T11:45:54;4.37;;;2.05;;
16928;SDS011;8581;47.334;11.190;2023-08-12T11:48:24;1.65;;;1.42;;
16928;SDS011;8581;47.334;11.190;2023-08-12T11:50:56;2.17;;;1.65;;
16928;SDS011;8581;47.334;11.190;2023-08-12T11:53:27;3.70;;;1.65;;
16928;SDS011;8581;47.334;11.190;2023-08-12T11:55:59;3.00;;;2.10;;
16928;SDS011;8581;47.334;11.190;2023-08-12T11:58:37;2.83;;;2.00;;
16928;SDS011;8581;47.334;11.190;2023-08-12T12:01:09;4.47;;;1.90;;
16928;SDS011;8581;47.334;11.190;2023-08-12T12:03:41;3.98;;;1.92;;
16928;SDS011;8581;47.334;11.190;2023-08-12T12:06:12;2.90;;;2.00;;
16928;SDS011;8581;47.334;11.190;2023-08-12T12:08:44;3.08;;;1.80;;
16928;SDS011;8581;47.334;11.190;2023-08-12T12:11:15;2.87;;;1.95;;
16928;SDS011;8581;47.334;11.190;2023-08-12T12:13:47;2.37;;;1.75;;
16928;SDS011;8581;47.334;11.190;2023-08-12T12:16:19;4.42;;;1.90;;
16928;SDS011;8581;47.334;11.190;2023-08-12T12:18:56;2.87;;;1.75;;
16928;SDS011;8581;47.334;11.190;2023-08-12T12:21:22;3.85;;;1.80;;
16928;SDS011;8581;47.334;11.190;2023-08-12T12:23:53;3.35;;;2.17;;
16928;SDS011;8581;47.334;11.190;2023-08-12T12:26:28;4.53;;;1.92;;
16928;SDS011;8581;47.334;11.190;2023-08-12T12:29:06;1.85;;;1.75;;
16928;SDS011;8581;47.334;11.190;2023-08-12T12:31:37;2.80;;;1.60;;
16928;SDS011;8581;47.334;11.190;2023-08-12T12:34:09;2.45;;;1.95;;
16928;SDS011;8581;47.334;11.190;2023-08-12T12:36:40;5.45;;;1.80;;
16928;SDS011;8581;47.334;11.190;2023-08-12T12:39:12;2.05;;;1.80;;
16928;SDS011;8581;47.334;11.190;2023-08-12T12:41:43;2.27;;;1.90;;
16928;SDS011;8581;47.334;11.190;2023-08-12T12:44:15;2.20;;;1.90;;
16928;SDS011;8581;47.334;11.190;2023-08-12T12:46:47;3.35;;;1.98;;
16928;SDS011;8581;47.334;11.190;2023-08-12T12:49:19;2.70;;;1.90;;
16928;SDS011;8581;47.334;11.190;2023-08-12T12:51:50;2.67;;;2.00;;
16928;SDS011;8581;47.334;11.190;2023-08-12T12:54:21;4.28;;;1.90;;
16928;SDS011;8581;47.334;11.190;2023-08-12T12:56:53;2.35;;;1.80;;
16928;SDS011;8581;47.334;11.190;2023-08-12T12:59:24;2.22;;;1.80;;
16928;SDS011;8581;47.334;11.190;2023-08-12T13:01:56;4.05;;;1.87;;
16928;SDS011;8581;47.334;11.190;2023-08-12T13:04:28;5.28;;;2.00;;
16928;SDS011;8581;47.334;11.190;2023-08-12T13:06:59;3.33;;;1.92;;
16928;SDS011;8581;47.334;11.190;2023-08-12T13:09:31;4.65;;;1.98;;
16928;SDS011;8581;47.334;11.190;2023-08-12T13:12:03;3.37;;;1.82;;
16928;SDS011;8581;47.334;11.190;2023-08-12T13:14:35;3.77;;;1.90;;
16928;SDS011;8581;47.334;11.190;2023-08-12T13:17:08;3.60;;;2.00;;
16928;SDS011;8581;47.334;11.190;2023-08-12T13:19:40;3.55;;;1.90;;
16928;SDS011;8581;47.334;11.190;2023-08-12T13:22:12;2.05;;;1.85;;
16928;SDS011;8581;47.334;11.190;2023-08-12T13:24:53;3.77;;;2.40;;
16928;SDS011;8581;47.334;11.190;2023-08-12T13:27:24;4.60;;;2.35;;
16928;SDS011;8581;47.334;11.190;2023-08-12T13:29:56;5.55;;;2.20;;
16928;SDS011;8581;47.334;11.190;2023-08-12T13:32:27;5.47;;;2.58;;
16928;SDS011;8581;47.334;11.190;2023-08-12T13:34:59;2.83;;;1.80;;
16928;SDS011;8581;47.334;11.190;2023-08-12T13:37:33;2.20;;;2.00;;
16928;SDS011;8581;47.334;11.190;2023-08-12T13:40:05;3.90;;;1.90;;
16928;SDS011;8581;47.334;11.190;2023-08-12T13:42:38;2.67;;;1.72;;
16928;SDS011;8581;47.334;11.190;2023-08-12T13:45:11;2.60;;;2.27;;
16928;SDS011;8581;47.334;11.190;2023-08-12T13:47:41;2.65;;;1.80;;
16928;SDS011;8581;47.334;11.190;2023-08-12T13:50:13;3.15;;;2.10;;
16928;SDS011;8581;47.334;11.190;2023-08-12T13:52:45;2.12;;;1.92;;
16928;SDS011;8581;47.334;11.190;2023-08-12T13:55:16;2.85;;;1.98;;
16928;SDS011;8581;47.334;11.190;2023-08-12T13:57:47;3.00;;;1.98;;
16928;SDS011;8581;47.334;11.190;2023-08-12T14:00:19;3.58;;;2.10;;
16928;SDS011;8581;47.334;11.190;2023-08-12T14:02:51;4.03;;;2.20;;
16928;SDS011;8581;47.334;11.190;2023-08-12T14:05:22;3.52;;;2.60;;
16928;SDS011;8581;47.334;11.190;2023-08-12T14:07:57;3.67;;;2.37;;
16928;SDS011;8581;47.334;11.190;2023-08-12T14:10:28;2.45;;;1.77;;
16928;SDS011;8581;47.334;11.190;2023-08-12T14:13:00;2.33;;;2.17;;
16928;SDS011;8581;47.334;11.190;2023-08-12T14:15:32;2.22;;;2.02;;
16928;SDS011;8581;47.334;11.190;2023-08-12T14:18:06;2.42;;;2.22;;
16928;SDS011;8581;47.334;11.190;2023-08-12T14:20:37;2.67;;;2.20;;
16928;SDS011;8581;47.334;11.190;2023-08-12T14:23:09;2.70;;;2.47;;
16928;SDS011;8581;47.334;11.190;2023-08-12T14:25:41;3.27;;;2.33;;
16928;SDS011;8581;47.334;11.190;2023-08-12T14:28:12;3.72;;;2.70;;
16928;SDS011;8581;47.334;11.190;2023-08-12T14:30:44;2.60;;;2.40;;
16928;SDS011;8581;47.334;11.190;2023-08-12T14:33:15;3.02;;;2.60;;
16928;SDS011;8581;47.334;11.190;2023-08-12T14:35:47;2.50;;;2.22;;
16928;SDS011;8581;47.334;11.190;2023-08-12T14:38:18;2.95;;;2.20;;
16928;SDS011;8581;47.334;11.190;2023-08-12T14:40:50;2.92;;;2.33;;
16928;SDS011;8581;47.334;11.190;2023-08-12T14:43:22;4.35;;;2.30;;
16928;SDS011;8581;47.334;11.190;2023-08-12T14:45:53;2.40;;;2.20;;
16928;SDS011;8581;47.334;11.190;2023-08-12T14:48:25;5.85;;;2.60;;
16928;SDS011;8581;47.334;11.190;2023-08-12T14:50:56;3.83;;;2.17;;
16928;SDS011;8581;47.334;11.190;2023-08-12T14:53:28;2.95;;;2.15;;
16928;SDS011;8581;47.334;11.190;2023-08-12T14:56:00;2.45;;;2.25;;
16928;SDS011;8581;47.334;11.190;2023-08-12T14:58:31;2.45;;;2.10;;
16928;SDS011;8581;47.334;11.190;2023-08-12T15:01:03;5.78;;;2.30;;
16928;SDS011;8581;47.334;11.190;2023-08-12T15:03:34;2.33;;;2.12;;
16928;SDS011;8581;47.334;11.190;2023-08-12T15:06:06;2.58;;;2.22;;
16928;SDS011;8581;47.334;11.190;2023-08-12T15:08:38;2.80;;;2.08;;
16928;SDS011;8581;47.334;11.190;2023-08-12T15:11:09;4.28;;;2.10;;
16928;SDS011;8581;47.334;11.190;2023-08-12T15:13:41;2.22;;;1.90;;
16928;SDS011;8581;47.334;11.190;2023-08-12T15:16:12;3.92;;;2.17;;
16928;SDS011;8581;47.334;11.190;2023-08-12T15:18:44;2.60;;;2.12;;
16928;SDS011;8581;47.334;11.190;2023-08-12T15:21:16;2.35;;;2.15;;
16928;SDS011;8581;47.334;11.190;2023-08-12T15:23:47;2.90;;;2.50;;